Mustafa Dayi — TCZF2 — position and weather

sailwx.info

Track history (hours):
 
Tides and Currents Weather Stations Pressure Air Temp Water Temp Dewpoint Dewpoint Depression Visibility Wind Speed Wind Dir Waves Ship Positions

Mustafa Dayi

Last reported at 2017-Apr-20 21:13 UTC. Time now 2017-Apr-27 12:59 UTC.
Position N 35°57' W 025°55'.

Length 183 m; draft 10 m.

Type: Ship (hazmat cat A). MMSI: 271042433.

Date/timePositionNaut miles runAvg speedWind from/ knotsBaromVisibWave heightAir tempDewpointWater temp
2017-Apr-20 21:13N 35°57' W 025°55'316.0
2017-Apr-20 21:00N 35°58' W 025°51'816.0
2017-Apr-20 20:30N 35°58' W 025°41'816.0
2017-Apr-20 20:01N 35°58' W 025°31'815.8
2017-Apr-20 19:30N 35°58' W 025°21'815.6
2017-Apr-20 19:00N 35°58' W 025°11'815.2
2017-Apr-20 18:30N 35°58' W 025°02'815.6
2017-Apr-20 18:00N 35°58' W 024°52'815.8
2017-Apr-20 17:30N 35°58' W 024°43'816.0
2017-Apr-20 17:00N 35°58' W 024°33'815.9
2017-Apr-20 16:31N 35°58' W 024°23'816.0
2017-Apr-20 16:00N 35°58' W 024°13'815.9
2017-Apr-20 15:30N 35°57' W 024°03'64515.6
2017-Apr-18 22:07N 35°49' W 010°47'215.2
2017-Apr-18 22:00N 35°49' W 010°45'2415.0
2017-Apr-18 20:26N 35°50' W 010°16'715.4
2017-Apr-18 20:00N 35°50' W 010°08'815.3
2017-Apr-18 19:30N 35°50' W 009°58'816.0
2017-Apr-18 19:00N 35°50' W 009°48'815.7
2017-Apr-18 18:30N 35°50' W 009°39'815.9
2017-Apr-18 18:00N 35°51' W 009°29'815.7
2017-Apr-18 17:28N 35°51' W 009°19'915.9
2017-Apr-18 16:55N 35°52' W 009°08'715.9
2017-Apr-18 16:30N 35°52' W 008°60'815.9
2017-Apr-18 15:59N 35°53' W 008°50'816.2
2017-Apr-18 15:29N 35°53' W 008°40'816.2
2017-Apr-18 14:58N 35°53' W 008°29'816.1
2017-Apr-18 14:30N 35°54' W 008°20'1916.1
2017-Apr-18 13:18N 35°54' W 007°56'816.2
2017-Apr-18 12:49N 35°54' W 007°46'616.7
2017-Apr-18 12:26N 35°55' W 007°38'716.4
2017-Apr-18 12:00N 35°55' W 007°30'816.5
2017-Apr-18 11:30N 35°55' W 007°19'1118.8
2017-Apr-18 10:56N 35°56' W 007°06'5616.0
2017-Apr-18 07:24N 35°57' W 005°57'616.0
2017-Apr-18 07:00N 35°57' W 005°49'816.1
2017-Apr-18 06:30N 35°57' W 005°39'815.9
2017-Apr-18 06:00N 35°59' W 005°30'713.6
2017-Apr-18 05:30N 36°02' W 005°23'611.3
2017-Apr-18 05:01N 36°08' W 005°25'0 0.1
2017-Apr-18 04:30N 36°08' W 005°25'0 0.0
2017-Apr-18 04:00N 36°08' W 005°25'0 0.0
2017-Apr-18 03:29N 36°08' W 005°25'0 0.0
2017-Apr-18 02:58N 36°08' W 005°25'0 0.0
2017-Apr-18 02:25N 36°08' W 005°25'0 0.0
2017-Apr-18 01:55N 36°08' W 005°25'0 0.0
2017-Apr-18 01:28N 36°08' W 005°25'0 0.0
2017-Apr-18 00:59N 36°08' W 005°25'0 0.0
2017-Apr-18 00:29N 36°08' W 005°25'0 0.0
2017-Apr-17 23:59N 36°08' W 005°25'0 0.0
2017-Apr-17 23:29N 36°08' W 005°25'0 0.0
2017-Apr-17 23:00N 36°08' W 005°25'0 0.0
2017-Apr-17 22:30N 36°08' W 005°25'0 0.0
2017-Apr-17 21:59N 36°08' W 005°25'0 0.0
2017-Apr-17 21:29N 36°08' W 005°25'0 0.0
2017-Apr-17 20:59N 36°08' W 005°25'0 0.0
2017-Apr-17 20:30N 36°08' W 005°25'0 0.0
2017-Apr-17 20:00N 36°08' W 005°25'0 0.0
2017-Apr-17 19:30N 36°08' W 005°25'0 0.0
2017-Apr-17 19:00N 36°08' W 005°25'0 0.0
2017-Apr-17 18:30N 36°08' W 005°25'0 0.1
2017-Apr-17 18:00N 36°08' W 005°25'1 2.9
2017-Apr-17 17:30N 36°08' W 005°24'2 3.5
2017-Apr-17 17:00N 36°06' W 005°23'713.1
2017-Apr-17 16:30N 36°04' W 005°15'713.4
2017-Apr-17 16:00N 36°06' W 005°07'714.8
2017-Apr-17 15:30N 36°07' W 004°58'714.6
2017-Apr-17 15:00N 36°08' W 004°49'1114.5
2017-Apr-17 14:13N 36°11' W 004°35'2915.8
2017-Apr-17 12:23N 36°18' W 004°01'20515.8
2017-Apr-16 23:23N 36°43' E 000°13'58815.7
2017-Apr-15 09:54N 37°08' E 012°27'716.1
2017-Apr-15 09:30N 37°06' E 012°35'816.1
2017-Apr-15 08:59N 37°03' E 012°45'1015.9
2017-Apr-15 08:23N 36°59' E 012°56'616.1
2017-Apr-15 08:00N 36°57' E 013°03'916.5
2017-Apr-15 07:28N 36°54' E 013°13'816.5
2017-Apr-15 07:00N 36°51' E 013°22'4016.3
2017-Apr-15 04:35N 36°36' E 014°08'116.5
2017-Apr-15 04:30N 36°35' E 014°09'1016.5
2017-Apr-15 03:53N 36°32' E 014°21'616.4
2017-Apr-15 03:30N 36°29' E 014°28'816.2
2017-Apr-15 03:00N 36°26' E 014°38'816.1
2017-Apr-15 02:30N 36°25' E 014°48'816.1
2017-Apr-15 02:00N 36°26' E 014°58'816.1
2017-Apr-15 01:30N 36°26' E 015°08'816.4
2017-Apr-15 00:59N 36°26' E 015°18'816.5
2017-Apr-15 00:30N 36°25' E 015°28'3016.5
2017-Apr-14 22:41N 36°25' E 016°05'7016.2
2017-Apr-14 18:22N 36°24' E 017°32'616.0
2017-Apr-14 18:00N 36°24' E 017°40'31514.2
2017-Apr-13 19:47N 37°32' E 024°05'1515.7
2017-Apr-13 18:50N 37°43' E 024°16'816.0
2017-Apr-13 18:20N 37°49' E 024°24'  
2017-Apr-11 04:40N 39°49' E 025°49'213.1
2017-Apr-11 04:30N 39°51' E 025°49'  
Track history (hours):
 
Tides and Currents Weather Stations Pressure Air Temp Water Temp Dewpoint Dewpoint Depression Visibility Wind Speed Wind Dir Waves Ship Positions

Mustafa Dayi

Last reported at 2017-Apr-20 21:13 UTC. Time now 2017-Apr-27 12:59 UTC.
Position N 35°57' W 025°55'.

Length 183 m; draft 10 m.

Type: Ship (hazmat cat A). MMSI: 271042433.

Date/timePositionNaut miles runAvg speedWind from/ knotsBaromVisibWave heightAir tempDewpointWater temp
2017-Apr-20 21:13N 35°57' W 025°55'316.0
2017-Apr-20 21:00N 35°58' W 025°51'816.0
2017-Apr-20 20:30N 35°58' W 025°41'816.0
2017-Apr-20 20:01N 35°58' W 025°31'815.8
2017-Apr-20 19:30N 35°58' W 025°21'815.6
2017-Apr-20 19:00N 35°58' W 025°11'815.2
2017-Apr-20 18:30N 35°58' W 025°02'815.6
2017-Apr-20 18:00N 35°58' W 024°52'815.8
2017-Apr-20 17:30N 35°58' W 024°43'816.0
2017-Apr-20 17:00N 35°58' W 024°33'815.9
2017-Apr-20 16:31N 35°58' W 024°23'816.0
2017-Apr-20 16:00N 35°58' W 024°13'815.9
2017-Apr-20 15:30N 35°57' W 024°03'64515.6
2017-Apr-18 22:07N 35°49' W 010°47'215.2
2017-Apr-18 22:00N 35°49' W 010°45'2415.0
2017-Apr-18 20:26N 35°50' W 010°16'715.4
2017-Apr-18 20:00N 35°50' W 010°08'815.3
2017-Apr-18 19:30N 35°50' W 009°58'816.0
2017-Apr-18 19:00N 35°50' W 009°48'815.7
2017-Apr-18 18:30N 35°50' W 009°39'815.9
2017-Apr-18 18:00N 35°51' W 009°29'815.7
2017-Apr-18 17:28N 35°51' W 009°19'915.9
2017-Apr-18 16:55N 35°52' W 009°08'715.9
2017-Apr-18 16:30N 35°52' W 008°60'815.9
2017-Apr-18 15:59N 35°53' W 008°50'816.2
2017-Apr-18 15:29N 35°53' W 008°40'816.2
2017-Apr-18 14:58N 35°53' W 008°29'816.1
2017-Apr-18 14:30N 35°54' W 008°20'1916.1
2017-Apr-18 13:18N 35°54' W 007°56'816.2
2017-Apr-18 12:49N 35°54' W 007°46'616.7
2017-Apr-18 12:26N 35°55' W 007°38'716.4
2017-Apr-18 12:00N 35°55' W 007°30'816.5
2017-Apr-18 11:30N 35°55' W 007°19'1118.8
2017-Apr-18 10:56N 35°56' W 007°06'5616.0
2017-Apr-18 07:24N 35°57' W 005°57'616.0
2017-Apr-18 07:00N 35°57' W 005°49'816.1
2017-Apr-18 06:30N 35°57' W 005°39'815.9
2017-Apr-18 06:00N 35°59' W 005°30'713.6
2017-Apr-18 05:30N 36°02' W 005°23'611.3
2017-Apr-18 05:01N 36°08' W 005°25'0 0.1
2017-Apr-18 04:30N 36°08' W 005°25'0 0.0
2017-Apr-18 04:00N 36°08' W 005°25'0 0.0
2017-Apr-18 03:29N 36°08' W 005°25'0 0.0
2017-Apr-18 02:58N 36°08' W 005°25'0 0.0
2017-Apr-18 02:25N 36°08' W 005°25'0 0.0
2017-Apr-18 01:55N 36°08' W 005°25'0 0.0
2017-Apr-18 01:28N 36°08' W 005°25'0 0.0
2017-Apr-18 00:59N 36°08' W 005°25'0 0.0
2017-Apr-18 00:29N 36°08' W 005°25'0 0.0
2017-Apr-17 23:59N 36°08' W 005°25'0 0.0
2017-Apr-17 23:29N 36°08' W 005°25'0 0.0
2017-Apr-17 23:00N 36°08' W 005°25'0 0.0
2017-Apr-17 22:30N 36°08' W 005°25'0 0.0
2017-Apr-17 21:59N 36°08' W 005°25'0 0.0
2017-Apr-17 21:29N 36°08' W 005°25'0 0.0
2017-Apr-17 20:59N 36°08' W 005°25'0 0.0
2017-Apr-17 20:30N 36°08' W 005°25'0 0.0
2017-Apr-17 20:00N 36°08' W 005°25'0 0.0
2017-Apr-17 19:30N 36°08' W 005°25'0 0.0
2017-Apr-17 19:00N 36°08' W 005°25'0 0.0
2017-Apr-17 18:30N 36°08' W 005°25'0 0.1
2017-Apr-17 18:00N 36°08' W 005°25'1 2.9
2017-Apr-17 17:30N 36°08' W 005°24'2 3.5
2017-Apr-17 17:00N 36°06' W 005°23'713.1
2017-Apr-17 16:30N 36°04' W 005°15'713.4
2017-Apr-17 16:00N 36°06' W 005°07'714.8
2017-Apr-17 15:30N 36°07' W 004°58'714.6
2017-Apr-17 15:00N 36°08' W 004°49'1114.5
2017-Apr-17 14:13N 36°11' W 004°35'2915.8
2017-Apr-17 12:23N 36°18' W 004°01'20515.8
2017-Apr-16 23:23N 36°43' E 000°13'58815.7
2017-Apr-15 09:54N 37°08' E 012°27'716.1
2017-Apr-15 09:30N 37°06' E 012°35'816.1
2017-Apr-15 08:59N 37°03' E 012°45'1015.9
2017-Apr-15 08:23N 36°59' E 012°56'616.1
2017-Apr-15 08:00N 36°57' E 013°03'916.5
2017-Apr-15 07:28N 36°54' E 013°13'816.5
2017-Apr-15 07:00N 36°51' E 013°22'4016.3
2017-Apr-15 04:35N 36°36' E 014°08'116.5
2017-Apr-15 04:30N 36°35' E 014°09'1016.5
2017-Apr-15 03:53N 36°32' E 014°21'616.4
2017-Apr-15 03:30N 36°29' E 014°28'816.2
2017-Apr-15 03:00N 36°26' E 014°38'816.1
2017-Apr-15 02:30N 36°25' E 014°48'816.1
2017-Apr-15 02:00N 36°26' E 014°58'816.1
2017-Apr-15 01:30N 36°26' E 015°08'816.4
2017-Apr-15 00:59N 36°26' E 015°18'816.5
2017-Apr-15 00:30N 36°25' E 015°28'3016.5
2017-Apr-14 22:41N 36°25' E 016°05'7016.2
2017-Apr-14 18:22N 36°24' E 017°32'616.0
2017-Apr-14 18:00N 36°24' E 017°40'31514.2
2017-Apr-13 19:47N 37°32' E 024°05'1515.7
2017-Apr-13 18:50N 37°43' E 024°16'816.0
2017-Apr-13 18:20N 37°49' E 024°24'  
2017-Apr-11 04:40N 39°49' E 025°49'213.1
2017-Apr-11 04:30N 39°51' E 025°49'  

Dump ship's entire track history